Masz pytanie?

GDDKiA Wrocław :: Generalna Dyrekcja Dróg Krajowych i...

Znajdują się Państwo na stronie GDDKiA.gov.pl. Poniżej prezentujemy instrukcję instalacji darmowego czytnika ekranu wykorzystującego syntezator oparty na...www.gddkia.gov.pl/pl/54/gddkia-wroclaw

gddkia.gov.pl - Serwis informacyjny

Znajdują się Państwo na stronie GDDKiA.gov.pl. Poniżej prezentujemy instrukcję instalacji darmowego czytnika ekranu wykorzystującego syntezator oparty na...www.gddkia.gov.pl/

Biuletyn Informacji Publicznej GDDKiA

UWAGA! Serwis używa cookies (brak zmiany ustawienia oznacza zgodę) Strona główna: Szukaj: Mapa serwisu: Ilość odwiedzin: 1755529: Ostatnia aktualizacja: 2016-02...bip.gddkia.gov.pl/

Pogoda we Wrocławiu - InfoMeteo.pl

Depesza METAR lotniska Wrocław-Strachowice METAR = EPWR 050630Z 30006KT 9999 FEW010 BKN020 02/00 Q1024 STACJA..... EPWR - Wrocław-Strachowice …wroclaw.infometeo.pl/

Kamery na drogach Polski - traxelektronik.pl

Widoki z kamer na drodze...www.traxelektronik.pl/pogoda/kamery/index.php

Cała polska hotele, wczasy, noclegi, czartery, Turystyka w...

Turystyczna Mapa Polski zawiera bazę w której zawarte są: Hotele, Pensjonaty, Ośrodki, Domki, Agroturystyka, Sanatoria, Tanie Noclegiwww.oit.pl/